Vineburg, CA (95487)

7:11 PM PDT on August 31, 2015 (GMT -0700)
Lola Sonoma Farms | | Change Station
CLOSE
Current Station
Personal Weather Station
Location: Sonoma, CA
Elevation: 59 ft
Nearby Weather Stations

Elev 59 ft 38.27 °N, 122.43 °W | Updated 10 seconds ago

Clear
Clear
79.7 °F
Feels Like 79 °F
N
0.2
Wind Variable Wind from SE
Gusts 2.5 mph

Today
High -- | Low -- °F
--% Chance of Precip.
Yesterday
High -- | Low -- °F
Precip. -- in
6:38 AM 7:41 PM
Waning Gibbous, 92% visible
Pressure 29.87 in
Visibility 10.0 miles
Clouds Clear
Heat Index 79 °F
Dew Point 46 °F
Humidity 31%
Rainfall in
Snow Depth Not available.
UV 0 out of 12
Pollen 6.60 out of 12
Air Quality Not available.
Flu Activity Not available.
METAR KO69 010155Z AUTO 32004KT 10SM CLR 23/12 A2987 RMK AO1
Pressure 29.87 in
Visibility 10.0 miles
Clouds Clear
Heat Index 79 °F
Dew Point 46 °F
Humidity 31%
Rainfall in
Snow Depth Not available.
UV 0 out of 12
Pollen 6.60 out of 12
Air Quality Not available.
Flu Activity Not available.
METAR KO69 010155Z AUTO 32004KT 10SM CLR 23/12 A2987 RMK AO1

10-Day Weather Forecast

×

Almanac

Astronomy

Aug. 31, 2015 Rise Set
Actual Time
Civil Twilight
Nautical Twilight
Astronomical Twilight
Moon
Length of Visible Light
Length of Day
Tomorrow will be .
, % of the Moon is Illuminated

Today's Extremes

State Highs State Lows

Community

WunderPhotos

Upload Photos

1,851,443 photos uploaded!

WunderBlogs® & News

Nearby

Air Quality

  Air Quality AQ Index Pollutant
Not available.

Snow Depth

Station Depth Elevation

Earthquake Activity

City Distance Mag. Time & Date
Minimum magnitude displayed is 2.5.

Coastal Water Temperatures

Place Temperature

Stations

Nearby Weather Stations

Station Location Temp. Windchill Dew Point Humidity Wind Precip. Elev Updated Type